createdAt,value
2022-11-04T00:02:36.507Z,95.75
2022-11-04T00:08:01.365Z,95.95
2022-11-04T00:13:07.361Z,96.05
2022-11-04T00:18:13.583Z,96.05
2022-11-04T00:23:38.245Z,96.08
2022-11-04T00:28:44.348Z,95.88
2022-11-04T00:33:51.992Z,95.89
2022-11-04T00:38:58.190Z,95.82
2022-11-04T00:44:05.508Z,95.88
2022-11-04T00:49:12.933Z,96.04
2022-11-04T00:54:18.654Z,96.23
2022-11-04T00:59:24.452Z,96.52
2022-11-04T01:04:30.568Z,96.65
2022-11-04T01:09:36.526Z,96.66
2022-11-04T01:14:42.239Z,96.85
2022-11-04T01:19:48.487Z,97.05
2022-11-04T01:24:54.399Z,97.17
2022-11-04T01:30:00.052Z,97.15
2022-11-04T01:35:07.124Z,97.18
2022-11-04T01:40:13.449Z,97.28
2022-11-04T01:45:21.528Z,97.26
2022-11-04T01:50:31.036Z,97.23
2022-11-04T01:55:41.963Z,96.97
2022-11-04T02:00:48.574Z,96.77
2022-11-04T02:05:55.841Z,96.73
2022-11-04T02:11:04.068Z,96.46
2022-11-04T02:16:19.521Z,96.29
2022-11-04T02:21:55.170Z,96.09
2022-11-04T02:27:24.324Z,95.73
2022-11-04T02:32:42.635Z,95.30
2022-11-04T02:37:56.639Z,94.86
2022-11-04T02:43:12.516Z,94.43
2022-11-04T02:48:27.384Z,94.09
2022-11-04T02:53:39.726Z,93.79
2022-11-04T02:58:52.210Z,93.60
2022-11-04T03:04:06.625Z,93.28
2022-11-04T03:09:15.356Z,93.17
2022-11-04T03:14:27.489Z,92.95
2022-11-04T03:19:42.620Z,92.95
2022-11-04T03:24:50.108Z,92.85
2022-11-04T03:30:01.586Z,92.85
2022-11-04T03:35:07.195Z,92.62
2022-11-04T03:40:15.143Z,92.31
2022-11-04T03:45:21.074Z,92.15
2022-11-04T03:50:29.744Z,91.89
2022-11-04T03:55:46.700Z,91.69
2022-11-04T04:01:00.373Z,91.64
2022-11-04T04:06:15.531Z,91.54
2022-11-04T04:11:28.130Z,91.38
2022-11-04T04:16:38.878Z,91.22
2022-11-04T04:21:49.977Z,91.22
2022-11-04T04:27:16.351Z,91.12
2022-11-04T04:32:27.114Z,90.92
2022-11-04T04:37:32.314Z,90.80
2022-11-04T04:42:58.330Z,90.71
2022-11-04T04:48:05.739Z,90.53
2022-11-04T04:53:12.711Z,90.42
2022-11-04T04:58:18.576Z,90.14
2022-11-04T05:03:26.521Z,90.01
2022-11-04T05:08:32.308Z,89.94
2022-11-04T05:13:38.259Z,90.08
2022-11-04T05:18:44.565Z,89.92
2022-11-04T05:23:50.821Z,89.76
2022-11-04T05:28:56.829Z,89.59
2022-11-04T05:34:02.893Z,89.28
2022-11-04T05:39:11.238Z,89.17
2022-11-04T05:44:17.539Z,89.02
2022-11-04T05:49:23.809Z,89.22
2022-11-04T05:54:29.886Z,88.94
2022-11-04T05:59:35.989Z,88.88
2022-11-04T06:04:41.980Z,88.89
2022-11-04T06:09:48.620Z,89.02
2022-11-04T06:14:54.609Z,88.86
2022-11-04T06:20:00.819Z,88.65
2022-11-04T06:25:10.738Z,88.64
2022-11-04T06:30:17.534Z,88.16
2022-11-04T06:35:23.472Z,88.10
2022-11-04T06:40:29.501Z,88.03
2022-11-04T06:45:35.700Z,87.90
2022-11-04T06:50:41.922Z,87.75
2022-11-04T06:55:48.293Z,87.36
2022-11-04T07:00:54.599Z,87.23
2022-11-04T07:06:05.399Z,87.01
2022-11-04T07:11:11.892Z,86.80
2022-11-04T07:16:18.859Z,86.53
2022-11-04T07:21:25.144Z,86.27
2022-11-04T07:26:31.115Z,86.00
2022-11-04T07:31:37.047Z,85.70
2022-11-04T07:36:43.411Z,85.63
2022-11-04T07:41:49.241Z,85.39
2022-11-04T07:46:55.503Z,85.35
2022-11-04T07:52:01.374Z,84.61
2022-11-04T07:57:07.470Z,84.23
2022-11-04T08:02:13.518Z,83.62
2022-11-04T08:07:20.914Z,83.38
2022-11-04T08:12:28.056Z,82.98
2022-11-04T08:17:36.079Z,82.69
2022-11-04T08:22:43.395Z,83.03
2022-11-04T08:27:49.587Z,83.14
2022-11-04T08:32:55.468Z,82.82
2022-11-04T08:38:01.706Z,82.35
2022-11-04T08:43:08.826Z,82.04
2022-11-04T08:48:17.567Z,82.26
2022-11-04T08:53:24.049Z,81.94
2022-11-04T08:58:30.153Z,81.80
2022-11-04T09:03:37.689Z,81.83
2022-11-04T09:08:44.517Z,81.64
2022-11-04T09:13:51.068Z,81.48
2022-11-04T09:18:58.348Z,81.53
2022-11-04T09:24:04.578Z,81.40
2022-11-04T09:29:10.902Z,81.70
2022-11-04T09:34:18.092Z,81.07
2022-11-04T09:39:27.074Z,81.11
2022-11-04T09:45:07.339Z,80.81
2022-11-04T09:50:21.169Z,80.82
2022-11-04T09:55:35.835Z,80.40
2022-11-04T10:00:47.325Z,80.15
2022-11-04T10:06:08.400Z,80.07
2022-11-04T10:11:21.593Z,79.96
2022-11-04T10:16:44.840Z,79.89
2022-11-04T10:22:02.210Z,80.31
2022-11-04T10:27:16.011Z,79.87
2022-11-04T10:32:26.448Z,78.61
2022-11-04T10:37:34.578Z,78.00
2022-11-04T10:42:41.395Z,75.84
2022-11-04T10:47:56.552Z,73.75
2022-11-04T10:53:14.525Z,72.54
2022-11-04T10:58:24.721Z,72.13
2022-11-04T11:03:33.305Z,72.11
2022-11-04T11:08:39.790Z,71.60
2022-11-04T11:13:47.444Z,70.71
2022-11-04T11:19:17.681Z,70.23
2022-11-04T11:24:26.279Z,69.21
2022-11-04T11:29:40.466Z,68.75
2022-11-04T11:34:48.958Z,69.02
2022-11-04T11:39:54.940Z,68.63
2022-11-04T11:45:05.177Z,67.16
2022-11-04T11:50:18.325Z,65.82
2022-11-04T11:55:27.729Z,64.87
2022-11-04T12:00:40.250Z,63.87
2022-11-04T12:11:28.856Z,63.96
2022-11-04T12:16:44.061Z,64.03
2022-11-04T12:22:00.925Z,63.72
2022-11-04T12:27:14.263Z,62.53
2022-11-04T12:32:33.999Z,62.64
2022-11-04T12:37:50.538Z,61.40
2022-11-04T12:43:07.644Z,60.65
2022-11-04T12:48:26.582Z,60.49
2022-11-04T12:53:45.042Z,61.01
2022-11-04T12:59:08.784Z,62.02
2022-11-04T13:15:52.524Z,63.88
2022-11-04T13:21:03.349Z,64.22
2022-11-04T13:26:14.703Z,65.22
2022-11-04T13:31:23.233Z,65.29
2022-11-04T13:36:40.342Z,65.85
2022-11-04T13:42:15.243Z,66.39
2022-11-04T13:47:27.020Z,66.63
2022-11-04T13:52:52.375Z,67.14
2022-11-04T13:58:01.997Z,67.64
2022-11-04T14:03:40.891Z,67.87
2022-11-04T14:09:18.469Z,68.42
2022-11-04T14:14:24.481Z,68.75
2022-11-04T14:20:00.880Z,68.86
2022-11-04T14:25:34.712Z,69.18
2022-11-04T14:30:49.000Z,69.49
2022-11-04T14:35:57.734Z,69.67
2022-11-04T14:41:23.845Z,69.73
2022-11-04T14:46:33.943Z,70.17
2022-11-04T14:51:42.926Z,70.61
2022-11-04T14:56:49.139Z,71.44
2022-11-04T15:01:56.103Z,71.84
2022-11-04T15:07:04.694Z,72.31
2022-11-04T15:12:33.540Z,73.07
2022-11-04T15:17:39.555Z,73.78
2022-11-04T15:22:47.828Z,73.98
2022-11-04T15:27:54.168Z,74.33
2022-11-04T15:33:02.438Z,74.77
2022-11-04T15:38:13.050Z,75.04
2022-11-04T15:43:20.028Z,75.34
2022-11-04T15:48:33.962Z,75.62
2022-11-04T15:53:50.875Z,75.69
2022-11-04T15:58:59.591Z,75.78
2022-11-04T16:04:07.533Z,75.90
2022-11-04T16:09:29.059Z,76.00
2022-11-04T16:14:35.031Z,76.30
2022-11-04T16:19:44.989Z,76.53
2022-11-04T16:24:54.036Z,76.79
2022-11-04T16:30:06.984Z,77.09
2022-11-04T16:35:19.399Z,77.45
2022-11-04T16:40:25.949Z,77.81
2022-11-04T16:45:34.781Z,78.06
2022-11-04T16:50:41.610Z,78.33
2022-11-04T16:55:47.698Z,78.57
2022-11-04T17:00:53.785Z,79.02
2022-11-04T17:05:59.939Z,79.13
2022-11-04T17:11:06.269Z,79.50
2022-11-04T17:16:15.192Z,79.81
2022-11-04T17:21:23.307Z,80.05
2022-11-04T17:26:29.408Z,80.01
2022-11-04T17:31:35.254Z,80.17
2022-11-04T17:36:41.526Z,80.25
2022-11-04T17:42:07.167Z,80.20
2022-11-04T17:47:13.092Z,80.10
2022-11-04T17:52:19.104Z,80.25
2022-11-04T17:57:24.910Z,80.22
2022-11-04T18:02:31.083Z,80.23
2022-11-04T18:07:37.369Z,80.44
2022-11-04T18:12:43.542Z,80.50
2022-11-04T18:17:51.121Z,80.65
2022-11-04T18:22:58.785Z,80.74
2022-11-04T18:28:05.061Z,80.80
2022-11-04T18:33:11.479Z,80.90
2022-11-04T18:38:17.824Z,80.94
2022-11-04T18:43:23.868Z,80.90
2022-11-04T18:48:29.796Z,81.03
2022-11-04T18:53:36.526Z,80.91
2022-11-04T18:58:45.194Z,80.91
2022-11-04T19:03:51.745Z,80.90
2022-11-04T19:09:05.127Z,80.91
2022-11-04T19:14:18.896Z,80.95
2022-11-04T19:19:24.839Z,80.91
2022-11-04T19:24:30.861Z,80.78
2022-11-04T19:29:36.956Z,80.88
2022-11-04T19:34:43.535Z,80.88
2022-11-04T19:39:49.555Z,80.94
2022-11-04T19:44:55.353Z,80.89
2022-11-04T19:50:01.371Z,80.94
2022-11-04T19:55:08.719Z,81.08
2022-11-04T20:00:15.217Z,81.03
2022-11-04T20:05:21.286Z,81.16
2022-11-04T20:10:27.344Z,81.22
2022-11-04T20:15:33.388Z,81.38
2022-11-04T20:20:39.241Z,81.41
2022-11-04T20:25:45.852Z,81.58
2022-11-04T20:30:51.968Z,81.58
2022-11-04T20:35:58.000Z,81.96
2022-11-04T20:41:10.420Z,81.96
2022-11-04T20:46:18.466Z,82.10
2022-11-04T20:51:28.871Z,82.18
2022-11-04T20:56:37.029Z,82.50
2022-11-04T21:01:46.603Z,82.55
2022-11-04T21:06:53.222Z,82.76
2022-11-04T21:11:59.377Z,82.77
2022-11-04T21:17:05.854Z,83.10
2022-11-04T21:22:11.849Z,83.37
2022-11-04T21:27:17.971Z,83.52
2022-11-04T21:32:23.765Z,83.71
2022-11-04T21:37:33.527Z,83.86
2022-11-04T21:42:42.473Z,83.88
2022-11-04T21:47:48.681Z,83.78
2022-11-04T21:52:54.473Z,83.86
2022-11-04T21:58:00.565Z,83.84
2022-11-04T22:03:06.548Z,83.96
2022-11-04T22:08:18.356Z,84.04
2022-11-04T22:13:24.647Z,84.02
2022-11-04T22:18:32.349Z,83.96
2022-11-04T22:23:38.977Z,84.07
2022-11-04T22:28:46.649Z,84.06
2022-11-04T22:33:53.675Z,84.11
2022-11-04T22:39:00.147Z,84.06
2022-11-04T22:44:06.309Z,84.04
2022-11-04T22:49:14.507Z,84.12
2022-11-04T22:54:20.380Z,84.07
2022-11-04T22:59:26.288Z,84.21
2022-11-04T23:04:32.175Z,84.34
2022-11-04T23:09:57.191Z,84.27
2022-11-04T23:15:22.693Z,84.37
2022-11-04T23:20:29.746Z,84.40
2022-11-04T23:25:35.783Z,84.45
2022-11-04T23:30:44.353Z,84.36
2022-11-04T23:36:09.360Z,84.44
2022-11-04T23:41:34.413Z,84.31
2022-11-04T23:46:59.552Z,84.20
2022-11-04T23:52:24.942Z,84.17
2022-11-04T23:57:49.479Z,84.21
